Terminal Aerodrome Forecast
Issued by NWS

Home | Current Version | Previous Version | Graphics & Text | Print | Product List | Glossary On
Versions: 1 2 3 4 5 6 7 8 9 10 11 12 13 14 15 16 17 18 19 20 21
595
FTUS43 KGRB 152337
TAFCWA
TAF
KCWA 152337Z 1600/1624 29013G25KT P6SM OVC011
      TEMPO 1600/1604 6SM -DZSN BR OVC008
     FM160900 33010KT P6SM BKN018
     FM161300 35006KT P6SM BKN025
     FM161600 01005KT P6SM SCT030
     FM161800 VRB03KT P6SM SCT200
     FM162300 08005KT P6SM BKN200=

USA.gov is the U.S. government's official web portal to all federal, state and local government web resources and services.